sensor_id;sensor_type;location;lat;lon;timestamp;P1;durP1;ratioP1;P2;durP2;ratioP2
25351;SDS011;13304;48.464;8.712;2023-11-21T00:01:31;8.20;;;1.90;;
25351;SDS011;13304;48.464;8.712;2023-11-21T00:03:57;4.25;;;1.50;;
25351;SDS011;13304;48.464;8.712;2023-11-21T00:06:23;6.90;;;1.50;;
25351;SDS011;13304;48.464;8.712;2023-11-21T00:08:49;7.60;;;1.95;;
25351;SDS011;13304;48.464;8.712;2023-11-21T00:11:14;6.10;;;1.65;;
25351;SDS011;13304;48.464;8.712;2023-11-21T00:13:40;6.72;;;1.80;;
25351;SDS011;13304;48.464;8.712;2023-11-21T00:16:05;5.35;;;1.67;;
25351;SDS011;13304;48.464;8.712;2023-11-21T00:18:32;6.60;;;1.50;;
25351;SDS011;13304;48.464;8.712;2023-11-21T00:20:58;6.30;;;1.50;;
25351;SDS011;13304;48.464;8.712;2023-11-21T00:23:24;7.55;;;1.90;;
25351;SDS011;13304;48.464;8.712;2023-11-21T00:25:50;5.28;;;1.38;;
25351;SDS011;13304;48.464;8.712;2023-11-21T00:28:16;7.35;;;1.70;;
25351;SDS011;13304;48.464;8.712;2023-11-21T00:30:41;5.20;;;1.50;;
25351;SDS011;13304;48.464;8.712;2023-11-21T00:33:07;6.68;;;1.13;;
25351;SDS011;13304;48.464;8.712;2023-11-21T00:35:32;4.43;;;1.00;;
25351;SDS011;13304;48.464;8.712;2023-11-21T00:37:58;5.03;;;1.40;;
25351;SDS011;13304;48.464;8.712;2023-11-21T00:40:24;3.75;;;1.25;;
25351;SDS011;13304;48.464;8.712;2023-11-21T00:42:49;4.65;;;1.30;;
25351;SDS011;13304;48.464;8.712;2023-11-21T00:45:15;9.27;;;1.40;;
25351;SDS011;13304;48.464;8.712;2023-11-21T00:47:41;3.47;;;1.08;;
25351;SDS011;13304;48.464;8.712;2023-11-21T00:50:07;6.05;;;1.23;;
25351;SDS011;13304;48.464;8.712;2023-11-21T00:52:34;4.43;;;1.10;;
25351;SDS011;13304;48.464;8.712;2023-11-21T00:55:01;3.78;;;1.02;;
25351;SDS011;13304;48.464;8.712;2023-11-21T00:57:28;3.38;;;0.95;;
25351;SDS011;13304;48.464;8.712;2023-11-21T00:59:53;3.72;;;0.93;;
25351;SDS011;13304;48.464;8.712;2023-11-21T01:02:19;6.18;;;0.90;;
25351;SDS011;13304;48.464;8.712;2023-11-21T01:04:45;3.83;;;1.25;;
25351;SDS011;13304;48.464;8.712;2023-11-21T01:07:12;6.82;;;1.15;;
25351;SDS011;13304;48.464;8.712;2023-11-21T01:09:38;3.28;;;0.95;;
25351;SDS011;13304;48.464;8.712;2023-11-21T01:12:04;3.58;;;1.17;;
25351;SDS011;13304;48.464;8.712;2023-11-21T01:14:30;3.55;;;1.15;;
25351;SDS011;13304;48.464;8.712;2023-11-21T01:16:55;5.10;;;1.30;;
25351;SDS011;13304;48.464;8.712;2023-11-21T01:19:21;5.38;;;1.10;;
25351;SDS011;13304;48.464;8.712;2023-11-21T01:21:46;5.10;;;0.80;;
25351;SDS011;13304;48.464;8.712;2023-11-21T01:24:12;6.80;;;1.20;;
25351;SDS011;13304;48.464;8.712;2023-11-21T01:26:38;3.45;;;1.48;;
25351;SDS011;13304;48.464;8.712;2023-11-21T01:29:03;7.70;;;3.28;;
25351;SDS011;13304;48.464;8.712;2023-11-21T01:31:29;9.32;;;4.35;;
25351;SDS011;13304;48.464;8.712;2023-11-21T01:33:55;8.13;;;4.60;;
25351;SDS011;13304;48.464;8.712;2023-11-21T01:36:22;6.95;;;3.88;;
25351;SDS011;13304;48.464;8.712;2023-11-21T01:38:47;6.15;;;1.67;;
25351;SDS011;13304;48.464;8.712;2023-11-21T01:41:13;4.43;;;1.27;;
25351;SDS011;13304;48.464;8.712;2023-11-21T01:43:40;4.28;;;1.40;;
25351;SDS011;13304;48.464;8.712;2023-11-21T01:46:06;1.73;;;0.73;;
25351;SDS011;13304;48.464;8.712;2023-11-21T01:48:33;1.75;;;0.80;;
25351;SDS011;13304;48.464;8.712;2023-11-21T01:51:00;6.15;;;1.00;;
25351;SDS011;13304;48.464;8.712;2023-11-21T01:53:26;3.38;;;0.90;;
25351;SDS011;13304;48.464;8.712;2023-11-21T01:55:53;4.57;;;1.13;;
25351;SDS011;13304;48.464;8.712;2023-11-21T01:58:20;3.65;;;1.17;;
25351;SDS011;13304;48.464;8.712;2023-11-21T02:00:46;3.08;;;0.90;;
25351;SDS011;13304;48.464;8.712;2023-11-21T02:03:15;4.95;;;1.02;;
25351;SDS011;13304;48.464;8.712;2023-11-21T02:05:41;2.33;;;0.80;;
25351;SDS011;13304;48.464;8.712;2023-11-21T02:08:07;3.92;;;0.93;;
25351;SDS011;13304;48.464;8.712;2023-11-21T02:10:34;6.90;;;1.27;;
25351;SDS011;13304;48.464;8.712;2023-11-21T02:13:02;2.40;;;0.82;;
25351;SDS011;13304;48.464;8.712;2023-11-21T02:15:28;2.78;;;1.00;;
25351;SDS011;13304;48.464;8.712;2023-11-21T02:17:54;4.05;;;1.10;;
25351;SDS011;13304;48.464;8.712;2023-11-21T02:20:20;1.77;;;0.82;;
25351;SDS011;13304;48.464;8.712;2023-11-21T02:25:23;3.92;;;1.00;;
25351;SDS011;13304;48.464;8.712;2023-11-21T02:27:49;5.75;;;1.13;;
25351;SDS011;13304;48.464;8.712;2023-11-21T02:30:16;1.92;;;0.95;;
25351;SDS011;13304;48.464;8.712;2023-11-21T02:32:42;3.15;;;0.63;;
25351;SDS011;13304;48.464;8.712;2023-11-21T02:35:08;2.38;;;0.73;;
25351;SDS011;13304;48.464;8.712;2023-11-21T02:37:34;3.15;;;0.80;;
25351;SDS011;13304;48.464;8.712;2023-11-21T02:40:00;2.95;;;0.70;;
25351;SDS011;13304;48.464;8.712;2023-11-21T02:42:29;4.78;;;0.73;;
25351;SDS011;13304;48.464;8.712;2023-11-21T02:44:55;1.38;;;0.73;;
25351;SDS011;13304;48.464;8.712;2023-11-21T02:47:21;3.85;;;0.70;;
25351;SDS011;13304;48.464;8.712;2023-11-21T02:49:48;4.30;;;0.70;;
25351;SDS011;13304;48.464;8.712;2023-11-21T02:52:14;2.80;;;0.90;;
25351;SDS011;13304;48.464;8.712;2023-11-21T02:54:39;8.52;;;0.90;;
25351;SDS011;13304;48.464;8.712;2023-11-21T02:57:05;3.65;;;0.70;;
25351;SDS011;13304;48.464;8.712;2023-11-21T02:59:31;6.35;;;0.90;;
25351;SDS011;13304;48.464;8.712;2023-11-21T03:01:56;3.53;;;0.80;;
25351;SDS011;13304;48.464;8.712;2023-11-21T03:04:22;4.50;;;0.80;;
25351;SDS011;13304;48.464;8.712;2023-11-21T03:06:47;4.05;;;0.70;;
25351;SDS011;13304;48.464;8.712;2023-11-21T03:09:13;3.47;;;0.85;;
25351;SDS011;13304;48.464;8.712;2023-11-21T03:11:38;5.63;;;0.90;;
25351;SDS011;13304;48.464;8.712;2023-11-21T03:14:04;4.70;;;0.88;;
25351;SDS011;13304;48.464;8.712;2023-11-21T03:16:31;7.20;;;0.85;;
25351;SDS011;13304;48.464;8.712;2023-11-21T03:18:57;3.03;;;0.73;;
25351;SDS011;13304;48.464;8.712;2023-11-21T03:21:23;10.98;;;0.93;;
25351;SDS011;13304;48.464;8.712;2023-11-21T03:23:49;6.05;;;0.73;;
25351;SDS011;13304;48.464;8.712;2023-11-21T03:26:15;3.47;;;0.90;;
25351;SDS011;13304;48.464;8.712;2023-11-21T03:28:41;3.90;;;0.60;;
25351;SDS011;13304;48.464;8.712;2023-11-21T03:31:07;2.63;;;0.60;;
25351;SDS011;13304;48.464;8.712;2023-11-21T03:33:34;7.63;;;0.60;;
25351;SDS011;13304;48.464;8.712;2023-11-21T03:36:00;8.95;;;0.98;;
25351;SDS011;13304;48.464;8.712;2023-11-21T03:38:26;5.90;;;0.77;;
25351;SDS011;13304;48.464;8.712;2023-11-21T03:40:51;3.75;;;0.70;;
25351;SDS011;13304;48.464;8.712;2023-11-21T03:43:18;8.13;;;0.80;;
25351;SDS011;13304;48.464;8.712;2023-11-21T03:45:44;3.08;;;0.70;;
25351;SDS011;13304;48.464;8.712;2023-11-21T03:48:09;5.20;;;0.77;;
25351;SDS011;13304;48.464;8.712;2023-11-21T03:50:37;3.75;;;0.50;;
25351;SDS011;13304;48.464;8.712;2023-11-21T03:53:03;4.93;;;0.93;;
25351;SDS011;13304;48.464;8.712;2023-11-21T03:55:29;5.85;;;0.85;;
25351;SDS011;13304;48.464;8.712;2023-11-21T03:57:56;5.82;;;0.70;;
25351;SDS011;13304;48.464;8.712;2023-11-21T04:00:25;1.92;;;0.82;;
25351;SDS011;13304;48.464;8.712;2023-11-21T04:02:52;2.63;;;0.70;;
25351;SDS011;13304;48.464;8.712;2023-11-21T04:05:19;1.33;;;0.52;;
25351;SDS011;13304;48.464;8.712;2023-11-21T04:07:46;3.92;;;0.60;;
25351;SDS011;13304;48.464;8.712;2023-11-21T04:10:12;2.65;;;0.80;;
25351;SDS011;13304;48.464;8.712;2023-11-21T04:12:38;2.08;;;0.93;;
25351;SDS011;13304;48.464;8.712;2023-11-21T04:15:04;3.42;;;0.70;;
25351;SDS011;13304;48.464;8.712;2023-11-21T04:17:30;1.25;;;0.63;;
25351;SDS011;13304;48.464;8.712;2023-11-21T04:19:55;1.67;;;0.70;;
25351;SDS011;13304;48.464;8.712;2023-11-21T04:22:21;4.93;;;0.77;;
25351;SDS011;13304;48.464;8.712;2023-11-21T04:24:47;3.55;;;0.70;;
25351;SDS011;13304;48.464;8.712;2023-11-21T04:27:12;1.60;;;0.60;;
25351;SDS011;13304;48.464;8.712;2023-11-21T04:29:39;3.67;;;0.60;;
25351;SDS011;13304;48.464;8.712;2023-11-21T04:32:06;2.50;;;0.70;;
25351;SDS011;13304;48.464;8.712;2023-11-21T04:34:32;4.55;;;1.02;;
25351;SDS011;13304;48.464;8.712;2023-11-21T04:36:59;6.13;;;0.80;;
25351;SDS011;13304;48.464;8.712;2023-11-21T04:39:25;1.30;;;0.70;;
25351;SDS011;13304;48.464;8.712;2023-11-21T04:41:51;2.90;;;0.95;;
25351;SDS011;13304;48.464;8.712;2023-11-21T04:44:17;2.75;;;0.70;;
25351;SDS011;13304;48.464;8.712;2023-11-21T04:46:43;1.63;;;0.57;;
25351;SDS011;13304;48.464;8.712;2023-11-21T04:49:08;1.25;;;0.77;;
25351;SDS011;13304;48.464;8.712;2023-11-21T04:51:34;2.25;;;1.10;;
25351;SDS011;13304;48.464;8.712;2023-11-21T04:53:59;4.40;;;0.85;;
25351;SDS011;13304;48.464;8.712;2023-11-21T04:56:25;2.25;;;0.80;;
25351;SDS011;13304;48.464;8.712;2023-11-21T04:58:51;2.72;;;0.90;;
25351;SDS011;13304;48.464;8.712;2023-11-21T05:01:16;1.15;;;0.98;;
25351;SDS011;13304;48.464;8.712;2023-11-21T05:03:42;1.92;;;1.08;;
25351;SDS011;13304;48.464;8.712;2023-11-21T05:06:11;2.83;;;1.10;;
25351;SDS011;13304;48.464;8.712;2023-11-21T05:08:37;1.52;;;0.80;;
25351;SDS011;13304;48.464;8.712;2023-11-21T05:11:03;2.92;;;0.63;;
25351;SDS011;13304;48.464;8.712;2023-11-21T05:13:28;0.82;;;0.60;;
25351;SDS011;13304;48.464;8.712;2023-11-21T05:15:54;2.28;;;1.00;;
25351;SDS011;13304;48.464;8.712;2023-11-21T05:18:23;1.92;;;0.70;;
25351;SDS011;13304;48.464;8.712;2023-11-21T05:20:51;2.20;;;0.70;;
25351;SDS011;13304;48.464;8.712;2023-11-21T05:23:18;3.33;;;1.10;;
25351;SDS011;13304;48.464;8.712;2023-11-21T05:25:44;1.95;;;0.73;;
25351;SDS011;13304;48.464;8.712;2023-11-21T05:28:11;2.25;;;1.08;;
25351;SDS011;13304;48.464;8.712;2023-11-21T05:30:37;1.65;;;1.30;;
25351;SDS011;13304;48.464;8.712;2023-11-21T05:33:04;1.65;;;0.80;;
25351;SDS011;13304;48.464;8.712;2023-11-21T05:35:30;4.55;;;1.73;;
25351;SDS011;13304;48.464;8.712;2023-11-21T05:37:56;4.57;;;2.92;;
25351;SDS011;13304;48.464;8.712;2023-11-21T05:40:21;5.97;;;2.85;;
25351;SDS011;13304;48.464;8.712;2023-11-21T05:42:47;2.30;;;1.40;;
25351;SDS011;13304;48.464;8.712;2023-11-21T05:45:13;1.52;;;0.77;;
25351;SDS011;13304;48.464;8.712;2023-11-21T05:47:41;2.80;;;0.73;;
25351;SDS011;13304;48.464;8.712;2023-11-21T05:50:08;3.58;;;1.10;;
25351;SDS011;13304;48.464;8.712;2023-11-21T05:52:36;2.20;;;0.90;;
25351;SDS011;13304;48.464;8.712;2023-11-21T05:55:02;2.35;;;0.98;;
25351;SDS011;13304;48.464;8.712;2023-11-21T05:57:29;3.05;;;0.95;;
25351;SDS011;13304;48.464;8.712;2023-11-21T05:59:55;3.13;;;1.10;;
25351;SDS011;13304;48.464;8.712;2023-11-21T06:02:21;2.40;;;1.23;;
25351;SDS011;13304;48.464;8.712;2023-11-21T06:04:46;2.92;;;1.10;;
25351;SDS011;13304;48.464;8.712;2023-11-21T06:07:12;2.67;;;1.05;;
25351;SDS011;13304;48.464;8.712;2023-11-21T06:09:38;4.13;;;1.42;;
25351;SDS011;13304;48.464;8.712;2023-11-21T06:12:03;1.80;;;1.00;;
25351;SDS011;13304;48.464;8.712;2023-11-21T06:14:30;3.92;;;0.80;;
25351;SDS011;13304;48.464;8.712;2023-11-21T06:16:58;3.00;;;1.35;;
25351;SDS011;13304;48.464;8.712;2023-11-21T06:19:24;2.75;;;0.98;;
25351;SDS011;13304;48.464;8.712;2023-11-21T06:21:49;3.10;;;1.00;;
25351;SDS011;13304;48.464;8.712;2023-11-21T06:24:15;4.13;;;1.25;;
25351;SDS011;13304;48.464;8.712;2023-11-21T06:26:41;2.60;;;1.50;;
25351;SDS011;13304;48.464;8.712;2023-11-21T06:29:09;2.78;;;1.20;;
25351;SDS011;13304;48.464;8.712;2023-11-21T06:31:36;1.45;;;1.30;;
25351;SDS011;13304;48.464;8.712;2023-11-21T06:34:01;3.50;;;1.10;;
25351;SDS011;13304;48.464;8.712;2023-11-21T06:36:28;2.38;;;0.98;;
25351;SDS011;13304;48.464;8.712;2023-11-21T06:38:53;3.10;;;1.05;;
25351;SDS011;13304;48.464;8.712;2023-11-21T06:41:20;2.15;;;1.00;;
25351;SDS011;13304;48.464;8.712;2023-11-21T06:43:45;2.33;;;1.00;;
25351;SDS011;13304;48.464;8.712;2023-11-21T06:46:12;5.32;;;0.93;;
25351;SDS011;13304;48.464;8.712;2023-11-21T06:48:43;8.95;;;1.20;;
25351;SDS011;13304;48.464;8.712;2023-11-21T06:51:09;6.87;;;1.40;;
25351;SDS011;13304;48.464;8.712;2023-11-21T06:53:35;4.90;;;1.20;;
25351;SDS011;13304;48.464;8.712;2023-11-21T06:56:01;5.45;;;0.93;;
25351;SDS011;13304;48.464;8.712;2023-11-21T06:58:27;2.65;;;0.93;;
25351;SDS011;13304;48.464;8.712;2023-11-21T07:00:53;9.43;;;0.93;;
25351;SDS011;13304;48.464;8.712;2023-11-21T07:03:19;3.83;;;1.08;;
25351;SDS011;13304;48.464;8.712;2023-11-21T07:05:45;3.95;;;1.25;;
25351;SDS011;13304;48.464;8.712;2023-11-21T07:08:10;9.32;;;1.80;;
25351;SDS011;13304;48.464;8.712;2023-11-21T07:10:37;4.82;;;1.33;;
25351;SDS011;13304;48.464;8.712;2023-11-21T07:13:03;3.58;;;1.23;;
25351;SDS011;13304;48.464;8.712;2023-11-21T07:15:29;3.60;;;1.20;;
25351;SDS011;13304;48.464;8.712;2023-11-21T07:17:54;11.73;;;1.27;;
25351;SDS011;13304;48.464;8.712;2023-11-21T07:20:21;4.30;;;1.00;;
25351;SDS011;13304;48.464;8.712;2023-11-21T07:22:47;5.78;;;1.27;;
25351;SDS011;13304;48.464;8.712;2023-11-21T07:25:12;6.60;;;1.40;;
25351;SDS011;13304;48.464;8.712;2023-11-21T07:27:38;3.97;;;1.30;;
25351;SDS011;13304;48.464;8.712;2023-11-21T07:30:04;4.97;;;1.10;;
25351;SDS011;13304;48.464;8.712;2023-11-21T07:32:31;3.25;;;1.33;;
25351;SDS011;13304;48.464;8.712;2023-11-21T07:34:56;6.10;;;1.15;;
25351;SDS011;13304;48.464;8.712;2023-11-21T07:37:24;4.78;;;1.10;;
25351;SDS011;13304;48.464;8.712;2023-11-21T07:39:53;11.50;;;0.95;;
25351;SDS011;13304;48.464;8.712;2023-11-21T07:42:21;4.72;;;1.15;;
25351;SDS011;13304;48.464;8.712;2023-11-21T07:44:49;3.50;;;0.85;;
25351;SDS011;13304;48.464;8.712;2023-11-21T07:47:15;3.97;;;1.20;;
25351;SDS011;13304;48.464;8.712;2023-11-21T07:49:40;7.22;;;1.27;;
25351;SDS011;13304;48.464;8.712;2023-11-21T07:52:08;2.22;;;1.10;;
25351;SDS011;13304;48.464;8.712;2023-11-21T07:54:34;3.83;;;0.90;;
25351;SDS011;13304;48.464;8.712;2023-11-21T07:57:01;6.85;;;1.00;;
25351;SDS011;13304;48.464;8.712;2023-11-21T07:59:27;3.83;;;0.82;;
25351;SDS011;13304;48.464;8.712;2023-11-21T08:01:53;4.10;;;1.10;;
25351;SDS011;13304;48.464;8.712;2023-11-21T08:04:19;2.25;;;1.00;;
25351;SDS011;13304;48.464;8.712;2023-11-21T08:06:44;7.03;;;1.40;;
25351;SDS011;13304;48.464;8.712;2023-11-21T08:09:10;12.10;;;1.20;;
25351;SDS011;13304;48.464;8.712;2023-11-21T08:11:37;6.07;;;1.10;;
25351;SDS011;13304;48.464;8.712;2023-11-21T08:14:03;3.67;;;1.02;;
25351;SDS011;13304;48.464;8.712;2023-11-21T08:16:30;4.53;;;1.55;;
25351;SDS011;13304;48.464;8.712;2023-11-21T08:18:55;3.90;;;1.17;;
25351;SDS011;13304;48.464;8.712;2023-11-21T08:21:21;6.32;;;1.13;;
25351;SDS011;13304;48.464;8.712;2023-11-21T08:23:49;1.90;;;0.90;;
25351;SDS011;13304;48.464;8.712;2023-11-21T08:26:19;3.72;;;1.58;;
25351;SDS011;13304;48.464;8.712;2023-11-21T08:28:45;3.55;;;1.30;;
25351;SDS011;13304;48.464;8.712;2023-11-21T08:31:12;2.88;;;1.20;;
25351;SDS011;13304;48.464;8.712;2023-11-21T08:33:38;3.45;;;0.93;;
25351;SDS011;13304;48.464;8.712;2023-11-21T08:36:07;3.05;;;1.17;;
25351;SDS011;13304;48.464;8.712;2023-11-21T08:38:34;129.98;;;55.10;;
25351;SDS011;13304;48.464;8.712;2023-11-21T08:41:03;163.02;;;70.72;;
25351;SDS011;13304;48.464;8.712;2023-11-21T08:43:33;68.53;;;32.00;;
25351;SDS011;13304;48.464;8.712;2023-11-21T08:46:07;27.42;;;14.23;;
25351;SDS011;13304;48.464;8.712;2023-11-21T08:48:36;30.20;;;17.58;;
25351;SDS011;13304;48.464;8.712;2023-11-21T08:51:03;8.70;;;5.18;;
25351;SDS011;13304;48.464;8.712;2023-11-21T08:53:48;7.95;;;3.25;;
25351;SDS011;13304;48.464;8.712;2023-11-21T08:56:13;4.82;;;3.33;;
25351;SDS011;13304;48.464;8.712;2023-11-21T08:58:39;8.95;;;2.80;;
25351;SDS011;13304;48.464;8.712;2023-11-21T09:01:06;7.60;;;3.38;;
25351;SDS011;13304;48.464;8.712;2023-11-21T09:03:32;12.50;;;7.30;;
25351;SDS011;13304;48.464;8.712;2023-11-21T09:05:59;23.83;;;13.98;;
25351;SDS011;13304;48.464;8.712;2023-11-21T09:08:24;27.88;;;14.43;;
25351;SDS011;13304;48.464;8.712;2023-11-21T09:10:50;48.50;;;26.05;;
25351;SDS011;13304;48.464;8.712;2023-11-21T09:13:17;14.07;;;7.80;;
25351;SDS011;13304;48.464;8.712;2023-11-21T09:15:43;15.88;;;8.93;;
25351;SDS011;13304;48.464;8.712;2023-11-21T09:18:12;11.27;;;7.30;;
25351;SDS011;13304;48.464;8.712;2023-11-21T09:23:07;17.38;;;8.82;;
25351;SDS011;13304;48.464;8.712;2023-11-21T09:25:34;4.75;;;3.13;;
25351;SDS011;13304;48.464;8.712;2023-11-21T09:28:01;4.25;;;2.22;;
25351;SDS011;13304;48.464;8.712;2023-11-21T09:30:26;6.32;;;3.50;;
25351;SDS011;13304;48.464;8.712;2023-11-21T09:32:52;10.43;;;6.43;;
25351;SDS011;13304;48.464;8.712;2023-11-21T09:35:17;3.55;;;2.33;;
25351;SDS011;13304;48.464;8.712;2023-11-21T09:37:44;2.05;;;1.52;;
25351;SDS011;13304;48.464;8.712;2023-11-21T09:40:10;2.63;;;1.50;;
25351;SDS011;13304;48.464;8.712;2023-11-21T09:43:15;4.20;;;1.48;;
25351;SDS011;13304;48.464;8.712;2023-11-21T09:46:02;1.95;;;1.35;;
25351;SDS011;13304;48.464;8.712;2023-11-21T09:48:35;1.67;;;1.08;;
25351;SDS011;13304;48.464;8.712;2023-11-21T09:51:04;1.67;;;1.20;;
25351;SDS011;13304;48.464;8.712;2023-11-21T09:53:30;1.60;;;1.00;;
25351;SDS011;13304;48.464;8.712;2023-11-21T09:55:58;1.13;;;0.75;;
25351;SDS011;13304;48.464;8.712;2023-11-21T09:58:27;0.80;;;0.70;;
25351;SDS011;13304;48.464;8.712;2023-11-21T10:00:53;2.60;;;0.68;;
25351;SDS011;13304;48.464;8.712;2023-11-21T10:03:21;2.10;;;1.33;;
25351;SDS011;13304;48.464;8.712;2023-11-21T10:05:47;4.65;;;1.10;;
25351;SDS011;13304;48.464;8.712;2023-11-21T10:08:15;1.35;;;1.00;;
25351;SDS011;13304;48.464;8.712;2023-11-21T10:10:46;1.83;;;1.05;;
25351;SDS011;13304;48.464;8.712;2023-11-21T10:13:18;4.10;;;1.90;;
25351;SDS011;13304;48.464;8.712;2023-11-21T10:15:44;3.58;;;1.90;;
25351;SDS011;13304;48.464;8.712;2023-11-21T10:18:15;1.77;;;1.10;;
25351;SDS011;13304;48.464;8.712;2023-11-21T10:20:42;1.65;;;1.10;;
25351;SDS011;13304;48.464;8.712;2023-11-21T10:23:08;2.03;;;0.98;;
25351;SDS011;13304;48.464;8.712;2023-11-21T10:25:36;3.50;;;2.15;;
25351;SDS011;13304;48.464;8.712;2023-11-21T10:28:03;2.88;;;1.15;;
25351;SDS011;13304;48.464;8.712;2023-11-21T10:30:37;1.92;;;1.00;;
25351;SDS011;13304;48.464;8.712;2023-11-21T10:33:07;2.08;;;1.45;;
25351;SDS011;13304;48.464;8.712;2023-11-21T10:38:12;5.85;;;3.05;;
25351;SDS011;13304;48.464;8.712;2023-11-21T10:40:39;2.45;;;1.10;;
25351;SDS011;13304;48.464;8.712;2023-11-21T10:43:07;4.22;;;0.80;;
25351;SDS011;13304;48.464;8.712;2023-11-21T10:45:37;1.05;;;0.80;;
25351;SDS011;13304;48.464;8.712;2023-11-21T10:48:07;1.13;;;0.70;;
25351;SDS011;13304;48.464;8.712;2023-11-21T10:50:35;2.00;;;0.77;;
25351;SDS011;13304;48.464;8.712;2023-11-21T10:53:02;1.10;;;0.80;;
25351;SDS011;13304;48.464;8.712;2023-11-21T10:55:29;1.00;;;0.65;;
25351;SDS011;13304;48.464;8.712;2023-11-21T10:57:57;0.88;;;0.60;;
25351;SDS011;13304;48.464;8.712;2023-11-21T11:00:25;1.65;;;0.55;;
25351;SDS011;13304;48.464;8.712;2023-11-21T11:02:52;1.02;;;0.57;;
25351;SDS011;13304;48.464;8.712;2023-11-21T11:07:50;1.50;;;0.70;;
25351;SDS011;13304;48.464;8.712;2023-11-21T11:10:22;5.53;;;3.15;;
25351;SDS011;13304;48.464;8.712;2023-11-21T11:12:51;1.90;;;1.38;;
25351;SDS011;13304;48.464;8.712;2023-11-21T11:15:17;1.77;;;1.17;;
25351;SDS011;13304;48.464;8.712;2023-11-21T11:17:45;2.17;;;1.00;;
25351;SDS011;13304;48.464;8.712;2023-11-21T11:20:12;1.40;;;0.90;;
25351;SDS011;13304;48.464;8.712;2023-11-21T11:23:44;6.55;;;0.98;;
25351;SDS011;13304;48.464;8.712;2023-11-21T11:35:02;1.92;;;0.80;;
25351;SDS011;13304;48.464;8.712;2023-11-21T11:37:32;0.88;;;0.73;;
25351;SDS011;13304;48.464;8.712;2023-11-21T11:39:58;0.52;;;0.52;;
25351;SDS011;13304;48.464;8.712;2023-11-21T11:42:25;1.05;;;0.77;;
25351;SDS011;13304;48.464;8.712;2023-11-21T11:44:52;2.88;;;1.02;;
25351;SDS011;13304;48.464;8.712;2023-11-21T11:47:21;1.90;;;1.02;;
25351;SDS011;13304;48.464;8.712;2023-11-21T11:52:51;1.38;;;0.88;;
25351;SDS011;13304;48.464;8.712;2023-11-21T11:55:20;1.60;;;1.00;;
25351;SDS011;13304;48.464;8.712;2023-11-21T11:57:47;1.80;;;1.02;;
25351;SDS011;13304;48.464;8.712;2023-11-21T12:00:17;0.88;;;0.68;;
25351;SDS011;13304;48.464;8.712;2023-11-21T12:02:51;1.75;;;0.95;;
25351;SDS011;13304;48.464;8.712;2023-11-21T12:05:18;2.58;;;1.00;;
25351;SDS011;13304;48.464;8.712;2023-11-21T12:07:52;1.92;;;1.20;;
25351;SDS011;13304;48.464;8.712;2023-11-21T12:10:20;1.80;;;1.00;;
25351;SDS011;13304;48.464;8.712;2023-11-21T12:12:50;1.50;;;0.80;;
25351;SDS011;13304;48.464;8.712;2023-11-21T12:15:22;3.63;;;0.80;;
25351;SDS011;13304;48.464;8.712;2023-11-21T12:17:49;4.82;;;0.70;;
25351;SDS011;13304;48.464;8.712;2023-11-21T12:20:15;5.18;;;1.17;;
25351;SDS011;13304;48.464;8.712;2023-11-21T12:22:47;2.67;;;0.90;;
25351;SDS011;13304;48.464;8.712;2023-11-21T12:25:23;2.78;;;0.80;;
25351;SDS011;13304;48.464;8.712;2023-11-21T12:27:54;0.55;;;0.40;;
25351;SDS011;13304;48.464;8.712;2023-11-21T12:30:22;0.75;;;0.50;;
25351;SDS011;13304;48.464;8.712;2023-11-21T12:32:49;0.65;;;0.50;;
25351;SDS011;13304;48.464;8.712;2023-11-21T12:35:21;7.10;;;4.30;;
25351;SDS011;13304;48.464;8.712;2023-11-21T12:37:49;2.20;;;1.43;;
25351;SDS011;13304;48.464;8.712;2023-11-21T12:40:16;2.03;;;0.90;;
25351;SDS011;13304;48.464;8.712;2023-11-21T12:42:42;0.82;;;0.40;;
25351;SDS011;13304;48.464;8.712;2023-11-21T12:45:22;2.25;;;0.50;;
25351;SDS011;13304;48.464;8.712;2023-11-21T12:47:51;5.45;;;1.77;;
25351;SDS011;13304;48.464;8.712;2023-11-21T12:50:23;3.72;;;1.02;;
25351;SDS011;13304;48.464;8.712;2023-11-21T12:52:53;0.98;;;0.73;;
25351;SDS011;13304;48.464;8.712;2023-11-21T12:55:22;1.05;;;0.70;;
25351;SDS011;13304;48.464;8.712;2023-11-21T12:57:52;0.60;;;0.50;;
25351;SDS011;13304;48.464;8.712;2023-11-21T13:00:32;0.40;;;0.40;;
25351;SDS011;13304;48.464;8.712;2023-11-21T13:03:02;2.33;;;0.63;;
25351;SDS011;13304;48.464;8.712;2023-11-21T13:05:38;0.90;;;0.65;;
25351;SDS011;13304;48.464;8.712;2023-11-21T13:08:08;7.63;;;3.20;;
25351;SDS011;13304;48.464;8.712;2023-11-21T13:10:37;16.30;;;6.93;;
25351;SDS011;13304;48.464;8.712;2023-11-21T13:13:12;14.40;;;6.50;;
25351;SDS011;13304;48.464;8.712;2023-11-21T13:15:48;12.95;;;5.90;;
25351;SDS011;13304;48.464;8.712;2023-11-21T13:18:15;12.60;;;6.53;;
25351;SDS011;13304;48.464;8.712;2023-11-21T13:20:41;12.38;;;6.90;;
25351;SDS011;13304;48.464;8.712;2023-11-21T13:23:08;8.35;;;5.35;;
25351;SDS011;13304;48.464;8.712;2023-11-21T13:25:37;7.45;;;4.43;;
25351;SDS011;13304;48.464;8.712;2023-11-21T13:28:06;5.40;;;3.22;;
25351;SDS011;13304;48.464;8.712;2023-11-21T13:30:32;3.60;;;2.50;;
25351;SDS011;13304;48.464;8.712;2023-11-21T13:33:01;7.50;;;3.60;;
25351;SDS011;13304;48.464;8.712;2023-11-21T13:35:35;6.88;;;3.55;;
25351;SDS011;13304;48.464;8.712;2023-11-21T13:38:13;3.50;;;2.30;;
25351;SDS011;13304;48.464;8.712;2023-11-21T13:40:47;4.82;;;2.63;;
25351;SDS011;13304;48.464;8.712;2023-11-21T13:43:19;4.60;;;3.17;;
25351;SDS011;13304;48.464;8.712;2023-11-21T13:45:47;3.17;;;2.40;;
25351;SDS011;13304;48.464;8.712;2023-11-21T13:48:26;4.35;;;2.90;;
25351;SDS011;13304;48.464;8.712;2023-11-21T13:51:05;10.65;;;5.50;;
25351;SDS011;13304;48.464;8.712;2023-11-21T13:53:45;10.45;;;7.15;;
25351;SDS011;13304;48.464;8.712;2023-11-21T13:56:17;8.30;;;5.03;;
25351;SDS011;13304;48.464;8.712;2023-11-21T13:58:50;11.45;;;6.35;;
25351;SDS011;13304;48.464;8.712;2023-11-21T14:01:20;6.93;;;5.35;;
25351;SDS011;13304;48.464;8.712;2023-11-21T14:03:58;8.60;;;4.57;;
25351;SDS011;13304;48.464;8.712;2023-11-21T14:09:19;7.07;;;4.07;;
25351;SDS011;13304;48.464;8.712;2023-11-21T14:11:54;33.03;;;23.65;;
25351;SDS011;13304;48.464;8.712;2023-11-21T14:14:22;8.18;;;5.78;;
25351;SDS011;13304;48.464;8.712;2023-11-21T14:16:50;7.78;;;5.40;;
25351;SDS011;13304;48.464;8.712;2023-11-21T14:19:16;9.75;;;6.18;;
25351;SDS011;13304;48.464;8.712;2023-11-21T14:21:43;4.63;;;3.17;;
25351;SDS011;13304;48.464;8.712;2023-11-21T14:24:13;9.75;;;5.60;;
25351;SDS011;13304;48.464;8.712;2023-11-21T14:26:42;13.63;;;6.05;;
25351;SDS011;13304;48.464;8.712;2023-11-21T14:29:10;11.48;;;6.38;;
25351;SDS011;13304;48.464;8.712;2023-11-21T14:31:39;12.55;;;6.00;;
25351;SDS011;13304;48.464;8.712;2023-11-21T14:34:06;18.20;;;8.43;;
25351;SDS011;13304;48.464;8.712;2023-11-21T14:36:32;13.82;;;8.13;;
25351;SDS011;13304;48.464;8.712;2023-11-21T14:39:05;17.30;;;8.10;;
25351;SDS011;13304;48.464;8.712;2023-11-21T14:41:48;14.07;;;7.80;;
25351;SDS011;13304;48.464;8.712;2023-11-21T14:44:14;10.93;;;6.90;;
25351;SDS011;13304;48.464;8.712;2023-11-21T14:46:40;21.05;;;11.25;;
25351;SDS011;13304;48.464;8.712;2023-11-21T14:49:11;15.65;;;9.57;;
25351;SDS011;13304;48.464;8.712;2023-11-21T14:51:48;44.88;;;21.85;;
25351;SDS011;13304;48.464;8.712;2023-11-21T14:54:35;16.85;;;8.55;;
25351;SDS011;13304;48.464;8.712;2023-11-21T14:57:11;24.92;;;10.75;;
25351;SDS011;13304;48.464;8.712;2023-11-21T14:59:44;20.42;;;9.45;;
25351;SDS011;13304;48.464;8.712;2023-11-21T15:02:16;13.90;;;6.80;;
25351;SDS011;13304;48.464;8.712;2023-11-21T15:04:47;12.45;;;5.63;;
25351;SDS011;13304;48.464;8.712;2023-11-21T15:07:16;32.42;;;15.13;;
25351;SDS011;13304;48.464;8.712;2023-11-21T15:09:42;10.73;;;6.18;;
25351;SDS011;13304;48.464;8.712;2023-11-21T15:12:09;11.70;;;6.07;;
25351;SDS011;13304;48.464;8.712;2023-11-21T15:14:44;11.00;;;5.65;;